Time,TemperatureF,DewpointF,PressureIn,WindDirection,WindDirectionDegrees,WindSpeedMPH,WindSpeedGustMPH,Humidity,HourlyPrecipIn,Conditions,Clouds,dailyrainin,SolarRadiationWatts/m^2,SoftwareType,DateUTC
2013-01-17 00:05:00,57.0,57.0,30.22,South,169,4.0,6.0,99,0.00,,,0.00,0.000000,,2013-01-17 05:05:00,
2013-01-17 00:12:00,57.0,57.0,30.22,South,169,4.0,6.0,99,0.00,,,0.00,0.000000,,2013-01-17 05:12:00,
2013-01-17 00:43:00,59.0,59.0,30.22,SSW,209,3.0,8.0,100,0.00,,,0.00,0.000000,,2013-01-17 05:43:00,
2013-01-17 00:53:00,59.0,59.0,30.22,SSW,209,3.0,8.0,100,0.00,,,0.00,0.000000,,2013-01-17 05:53:00,
2013-01-17 01:03:00,59.0,59.0,30.22,SSW,209,3.0,8.0,100,0.00,,,0.00,0.000000,,2013-01-17 06:03:00,
2013-01-17 01:12:00,59.0,59.0,30.22,SSW,209,3.0,8.0,100,0.00,,,0.00,0.000000,,2013-01-17 06:12:00,
2013-01-17 01:33:00,59.0,59.0,30.22,SSW,207,3.0,8.0,99,0.00,,,0.00,0.000000,,2013-01-17 06:33:00,
2013-01-17 01:42:00,59.0,59.0,30.22,SSW,207,3.0,8.0,99,0.00,,,0.00,0.000000,,2013-01-17 06:42:00,
2013-01-17 01:53:00,59.0,59.0,30.22,SSW,207,3.0,8.0,99,0.00,,,0.00,0.000000,,2013-01-17 06:53:00,
2013-01-17 02:02:00,59.0,59.0,30.22,SSW,207,3.0,8.0,99,0.00,,,0.00,0.000000,,2013-01-17 07:02:00,
2013-01-17 02:12:00,59.0,59.0,30.22,SSW,207,3.0,8.0,99,0.00,,,0.00,0.000000,,2013-01-17 07:12:00,
2013-01-17 02:43:00,58.0,58.0,30.22,SW,214,2.0,6.0,100,0.00,,,0.00,0.000000,,2013-01-17 07:43:00,
2013-01-17 02:53:00,58.0,58.0,30.22,SW,214,2.0,6.0,100,0.00,,,0.00,0.000000,,2013-01-17 07:53:00,
2013-01-17 03:02:00,58.0,58.0,30.22,SW,214,2.0,6.0,100,0.00,,,0.00,0.000000,,2013-01-17 08:02:00,
2013-01-17 03:12:00,58.0,58.0,30.22,SW,214,2.0,6.0,100,0.00,,,0.00,0.000000,,2013-01-17 08:12:00,
2013-01-17 03:43:00,56.0,56.0,30.20,SSE,161,2.0,4.0,100,0.00,,,0.00,0.000000,,2013-01-17 08:43:00,
2013-01-17 03:53:00,56.0,56.0,30.20,SSE,161,2.0,4.0,100,0.00,,,0.00,0.000000,,2013-01-17 08:53:00,
2013-01-17 04:03:00,56.0,56.0,30.20,SSE,161,2.0,4.0,100,0.00,,,0.00,0.000000,,2013-01-17 09:03:00,
2013-01-17 04:12:00,56.0,56.0,30.20,SSE,161,2.0,4.0,100,0.00,,,0.00,0.000000,,2013-01-17 09:12:00,
2013-01-17 04:33:00,53.0,53.0,30.19,ESE,107,0.0,4.0,100,0.00,,,0.00,0.000000,,2013-01-17 09:33:00,
2013-01-17 04:43:00,53.0,53.0,30.19,ESE,107,0.0,4.0,100,0.00,,,0.00,0.000000,,2013-01-17 09:43:00,
2013-01-17 04:53:00,53.0,53.0,30.19,ESE,107,0.0,4.0,100,0.00,,,0.00,0.000000,,2013-01-17 09:53:00,
2013-01-17 05:02:00,53.0,53.0,30.19,ESE,107,0.0,4.0,100,0.00,,,0.00,0.000000,,2013-01-17 10:02:00,
2013-01-17 05:12:00,53.0,53.0,30.19,ESE,107,0.0,4.0,100,0.00,,,0.00,0.000000,,2013-01-17 10:12:00,
2013-01-17 05:33:00,51.0,51.0,30.18,South,177,2.0,4.0,100,0.00,,,0.00,0.000000,,2013-01-17 10:33:00,
2013-01-17 05:43:00,51.0,51.0,30.18,South,177,2.0,4.0,100,0.00,,,0.00,0.000000,,2013-01-17 10:43:00,
2013-01-17 05:53:00,51.0,51.0,30.18,South,177,2.0,4.0,100,0.00,,,0.00,0.000000,,2013-01-17 10:53:00,
2013-01-17 06:03:00,51.0,51.0,30.18,South,177,2.0,4.0,100,0.00,,,0.00,0.000000,,2013-01-17 11:03:00,
2013-01-17 06:12:00,51.0,51.0,30.18,South,177,2.0,4.0,100,0.00,,,0.00,0.000000,,2013-01-17 11:12:00,
2013-01-17 06:33:00,54.0,54.0,30.18,SW,227,2.0,5.0,100,0.00,,,0.00,0.000000,,2013-01-17 11:33:00,
2013-01-17 06:43:00,54.0,54.0,30.18,SW,227,2.0,5.0,100,0.00,,,0.00,0.000000,,2013-01-17 11:43:00,
2013-01-17 06:53:00,54.0,54.0,30.18,SW,227,2.0,5.0,100,0.00,,,0.00,0.000000,,2013-01-17 11:53:00,
2013-01-17 07:03:00,54.0,54.0,30.18,SW,227,2.0,5.0,100,0.00,,,0.00,0.000000,,2013-01-17 12:03:00,
2013-01-17 07:12:00,54.0,54.0,30.18,SW,227,2.0,5.0,100,0.00,,,0.00,0.000000,,2013-01-17 12:12:00,
2013-01-17 07:33:00,55.0,55.0,30.20,SW,221,2.0,5.0,100,0.00,,,0.00,0.000000,,2013-01-17 12:33:00,
2013-01-17 07:43:00,55.0,55.0,30.20,SW,221,2.0,5.0,100,0.00,,,0.00,0.000000,,2013-01-17 12:43:00,
2013-01-17 07:53:00,55.0,55.0,30.20,SW,221,2.0,5.0,100,0.00,,,0.00,0.000000,,2013-01-17 12:53:00,
2013-01-17 08:03:00,55.0,55.0,30.20,SW,221,2.0,5.0,100,0.00,,,0.00,0.000000,,2013-01-17 13:03:00,
2013-01-17 08:12:00,55.0,55.0,30.20,SW,221,2.0,5.0,100,0.00,,,0.00,0.000000,,2013-01-17 13:12:00,
2013-01-17 08:33:00,58.0,58.0,30.22,SSW,204,2.0,4.0,100,0.00,,,0.00,24.000000,,2013-01-17 13:33:00,
2013-01-17 08:43:00,58.0,58.0,30.22,SSW,204,2.0,4.0,100,0.00,,,0.00,24.000000,,2013-01-17 13:43:00,
2013-01-17 08:53:00,58.0,58.0,30.22,SSW,204,2.0,4.0,100,0.00,,,0.00,24.000000,,2013-01-17 13:53:00,
2013-01-17 09:03:00,58.0,58.0,30.22,SSW,204,2.0,4.0,100,0.00,,,0.00,24.000000,,2013-01-17 14:03:00,
2013-01-17 09:13:00,58.0,58.0,30.22,SSW,204,2.0,4.0,100,0.00,,,0.00,24.000000,,2013-01-17 14:13:00,
2013-01-17 09:33:00,64.0,63.0,30.22,WSW,246,4.0,10.0,98,0.00,,,0.00,201.000000,,2013-01-17 14:33:00,
2013-01-17 09:43:00,64.0,63.0,30.22,WSW,246,4.0,10.0,98,0.00,,,0.00,201.000000,,2013-01-17 14:43:00,
2013-01-17 09:53:00,64.0,63.0,30.22,WSW,246,4.0,10.0,98,0.00,,,0.00,201.000000,,2013-01-17 14:53:00,
2013-01-17 10:03:00,64.0,63.0,30.22,WSW,246,4.0,10.0,98,0.00,,,0.00,201.000000,,2013-01-17 15:03:00,
2013-01-17 10:13:00,64.0,63.0,30.22,WSW,246,4.0,10.0,98,0.00,,,0.00,201.000000,,2013-01-17 15:13:00,
2013-01-17 10:33:00,73.0,65.0,30.22,West,265,5.0,13.0,75,0.00,,,0.00,380.000000,,2013-01-17 15:33:00,
2013-01-17 10:43:00,73.0,65.0,30.22,West,265,5.0,13.0,75,0.00,,,0.00,380.000000,,2013-01-17 15:43:00,
2013-01-17 10:53:00,73.0,65.0,30.22,West,265,5.0,13.0,75,0.00,,,0.00,380.000000,,2013-01-17 15:53:00,
2013-01-17 11:03:00,73.0,65.0,30.22,West,265,5.0,13.0,75,0.00,,,0.00,380.000000,,2013-01-17 16:03:00,
2013-01-17 11:12:00,73.0,65.0,30.22,West,265,5.0,13.0,75,0.00,,,0.00,380.000000,,2013-01-17 16:12:00,
2013-01-17 11:44:00,75.0,64.0,30.19,NW,309,5.0,12.0,68,0.00,,,0.00,504.000000,,2013-01-17 16:44:00,
2013-01-17 11:53:00,75.0,64.0,30.19,NW,309,5.0,12.0,68,0.00,,,0.00,504.000000,,2013-01-17 16:53:00,
2013-01-17 12:03:00,75.0,64.0,30.19,NW,309,5.0,12.0,68,0.00,,,0.00,504.000000,,2013-01-17 17:03:00,
2013-01-17 12:13:00,75.0,64.0,30.19,NW,309,5.0,12.0,68,0.00,,,0.00,504.000000,,2013-01-17 17:13:00,
2013-01-17 12:33:00,78.0,63.0,30.15,SW,217,4.0,11.0,60,0.00,,,0.00,618.000000,,2013-01-17 17:33:00,
2013-01-17 12:43:00,78.0,63.0,30.15,SW,217,4.0,11.0,60,0.00,,,0.00,618.000000,,2013-01-17 17:43:00,
2013-01-17 12:54:00,78.0,63.0,30.15,SW,217,4.0,11.0,60,0.00,,,0.00,618.000000,,2013-01-17 17:54:00,
2013-01-17 13:04:00,78.0,63.0,30.15,SW,217,4.0,11.0,60,0.00,,,0.00,618.000000,,2013-01-17 18:04:00,
2013-01-17 13:13:00,78.0,63.0,30.15,SW,217,4.0,11.0,60,0.00,,,0.00,618.000000,,2013-01-17 18:13:00,
2013-01-17 13:34:00,73.0,62.0,30.11,NE,45,5.0,11.0,68,0.00,,,0.00,446.000000,,2013-01-17 18:34:00,
2013-01-17 13:44:00,73.0,62.0,30.11,NE,45,5.0,11.0,68,0.00,,,0.00,446.000000,,2013-01-17 18:44:00,
2013-01-17 13:54:00,73.0,62.0,30.11,NE,45,5.0,11.0,68,0.00,,,0.00,446.000000,,2013-01-17 18:54:00,
2013-01-17 14:04:00,73.0,62.0,30.11,NE,45,5.0,11.0,68,0.00,,,0.00,446.000000,,2013-01-17 19:04:00,
2013-01-17 14:13:00,73.0,62.0,30.11,NE,45,5.0,11.0,68,0.00,,,0.00,446.000000,,2013-01-17 19:13:00,
2013-01-17 14:43:00,68.0,61.0,30.10,ENE,61,8.0,17.0,79,0.00,,,0.00,285.000000,,2013-01-17 19:43:00,
2013-01-17 14:54:00,68.0,61.0,30.10,ENE,61,8.0,17.0,79,0.00,,,0.00,285.000000,,2013-01-17 19:54:00,
2013-01-17 15:03:00,68.0,61.0,30.10,ENE,61,8.0,17.0,79,0.00,,,0.00,285.000000,,2013-01-17 20:03:00,
2013-01-17 15:13:00,68.0,61.0,30.10,ENE,61,8.0,17.0,79,0.00,,,0.00,285.000000,,2013-01-17 20:13:00,
2013-01-17 15:43:00,68.0,61.0,30.08,East,85,8.0,21.0,79,0.00,,,0.00,301.000000,,2013-01-17 20:43:00,
2013-01-17 15:54:00,68.0,61.0,30.08,East,85,8.0,21.0,79,0.00,,,0.00,301.000000,,2013-01-17 20:54:00,
2013-01-17 16:03:00,68.0,61.0,30.08,East,85,8.0,21.0,79,0.00,,,0.00,301.000000,,2013-01-17 21:03:00,
2013-01-17 16:13:00,68.0,61.0,30.08,East,85,8.0,21.0,79,0.00,,,0.00,301.000000,,2013-01-17 21:13:00,
2013-01-17 16:34:00,62.0,58.0,30.06,ESE,112,12.0,26.0,86,0.00,,,0.00,114.000000,,2013-01-17 21:34:00,
2013-01-17 16:43:00,62.0,58.0,30.06,ESE,112,12.0,26.0,86,0.00,,,0.00,114.000000,,2013-01-17 21:43:00,
2013-01-17 16:53:00,62.0,58.0,30.06,ESE,112,12.0,26.0,86,0.00,,,0.00,114.000000,,2013-01-17 21:53:00,
2013-01-17 17:04:00,62.0,58.0,30.06,ESE,112,12.0,26.0,86,0.00,,,0.00,114.000000,,2013-01-17 22:04:00,
2013-01-17 17:12:00,62.0,58.0,30.06,ESE,112,12.0,26.0,86,0.00,,,0.00,114.000000,,2013-01-17 22:12:00,
2013-01-17 17:33:00,58.0,55.0,30.05,East,84,11.0,25.0,91,0.01,,,0.01,23.000000,,2013-01-17 22:33:00,
2013-01-17 17:43:00,58.0,55.0,30.05,East,84,11.0,25.0,91,0.01,,,0.01,23.000000,,2013-01-17 22:43:00,
2013-01-17 17:53:00,58.0,55.0,30.05,East,84,11.0,25.0,91,0.01,,,0.01,23.000000,,2013-01-17 22:53:00,
2013-01-17 18:03:00,58.0,55.0,30.05,East,84,11.0,25.0,91,0.01,,,0.01,23.000000,,2013-01-17 23:03:00,
2013-01-17 18:12:00,58.0,55.0,30.05,East,84,11.0,25.0,91,0.01,,,0.01,23.000000,,2013-01-17 23:12:00,
2013-01-17 18:43:00,53.0,52.0,30.09,NE,45,5.0,18.0,98,0.45,,,0.46,0.000000,,2013-01-17 23:43:00,
2013-01-17 18:53:00,53.0,52.0,30.09,NE,45,5.0,18.0,98,0.45,,,0.46,0.000000,,2013-01-17 23:53:00,
2013-01-17 19:03:00,53.0,52.0,30.09,NE,45,5.0,18.0,98,0.45,,,0.46,0.000000,,2013-01-18 00:03:00,
2013-01-17 19:12:00,53.0,52.0,30.09,NE,45,5.0,18.0,98,0.45,,,0.46,0.000000,,2013-01-18 00:12:00,
2013-01-17 19:43:00,50.0,49.0,30.06,ENE,67,10.0,22.0,95,0.04,,,0.50,0.000000,,2013-01-18 00:43:00,
2013-01-17 19:53:00,50.0,49.0,30.06,ENE,67,10.0,22.0,95,0.04,,,0.50,0.000000,,2013-01-18 00:53:00,
2013-01-17 20:03:00,50.0,49.0,30.06,ENE,67,10.0,22.0,95,0.04,,,0.50,0.000000,,2013-01-18 01:03:00,
2013-01-17 20:13:00,50.0,49.0,30.06,ENE,67,10.0,22.0,95,0.04,,,0.50,0.000000,,2013-01-18 01:13:00,
2013-01-17 20:33:00,47.0,46.0,30.01,ENE,60,11.0,27.0,96,0.12,,,0.62,0.000000,,2013-01-18 01:33:00,
2013-01-17 20:43:00,47.0,46.0,30.01,ENE,60,11.0,27.0,96,0.12,,,0.62,0.000000,,2013-01-18 01:43:00,
2013-01-17 20:53:00,47.0,46.0,30.01,ENE,60,11.0,27.0,96,0.12,,,0.62,0.000000,,2013-01-18 01:53:00,
2013-01-17 21:03:00,47.0,46.0,30.01,ENE,60,11.0,27.0,96,0.12,,,0.62,0.000000,,2013-01-18 02:03:00,
2013-01-17 21:12:00,47.0,46.0,30.01,ENE,60,11.0,27.0,96,0.12,,,0.62,0.000000,,2013-01-18 02:12:00,
2013-01-17 21:43:00,44.0,43.0,30.12,North,8,8.0,32.0,97,0.29,,,0.91,0.000000,,2013-01-18 02:43:00,
2013-01-17 21:53:00,44.0,43.0,30.12,North,8,8.0,32.0,97,0.29,,,0.91,0.000000,,2013-01-18 02:53:00,
2013-01-17 22:03:00,44.0,43.0,30.12,North,8,8.0,32.0,97,0.29,,,0.91,0.000000,,2013-01-18 03:03:00,
2013-01-17 22:12:00,44.0,43.0,30.12,North,8,8.0,32.0,97,0.29,,,0.91,0.000000,,2013-01-18 03:12:00,
2013-01-17 22:33:00,44.0,43.0,30.17,NNW,338,9.0,22.0,96,0.05,,,0.96,0.000000,,2013-01-18 03:33:00,
2013-01-17 22:43:00,44.0,43.0,30.17,NNW,338,9.0,22.0,96,0.05,,,0.96,0.000000,,2013-01-18 03:43:00,
2013-01-17 22:53:00,44.0,43.0,30.17,NNW,338,9.0,22.0,96,0.05,,,0.96,0.000000,,2013-01-18 03:53:00,
2013-01-17 23:02:00,44.0,43.0,30.17,NNW,338,9.0,22.0,96,0.05,,,0.96,0.000000,,2013-01-18 04:02:00,
2013-01-17 23:12:00,44.0,43.0,30.17,NNW,338,9.0,22.0,96,0.05,,,0.96,0.000000,,2013-01-18 04:12:00,
2013-01-17 23:33:00,43.0,41.0,30.17,NNE,26,13.0,28.0,92,0.00,,,0.96,0.000000,,2013-01-18 04:33:00,
2013-01-17 23:43:00,43.0,41.0,30.17,NNE,26,13.0,28.0,92,0.00,,,0.96,0.000000,,2013-01-18 04:43:00,
2013-01-17 23:53:00,43.0,41.0,30.17,NNE,26,13.0,28.0,92,0.00,,,0.96,0.000000,,2013-01-18 04:53:00,